createdAt,value
2018-10-06T00:01:26.815Z,95.67
2018-10-06T00:03:53.919Z,95.00
2018-10-06T00:06:20.979Z,94.87
2018-10-06T00:08:47.951Z,95.02
2018-10-06T00:11:15.031Z,95.21
2018-10-06T00:13:42.002Z,95.58
2018-10-06T00:16:09.060Z,96.13
2018-10-06T00:18:36.284Z,94.92
2018-10-06T00:21:03.268Z,94.76
2018-10-06T00:23:30.370Z,94.39
2018-10-06T00:25:57.322Z,94.25
2018-10-06T00:28:24.321Z,94.00
2018-10-06T00:30:51.288Z,94.39
2018-10-06T00:33:18.345Z,95.09
2018-10-06T00:35:45.403Z,95.94
2018-10-06T00:38:12.380Z,97.00
2018-10-06T00:40:39.686Z,97.43
2018-10-06T00:43:06.751Z,97.38
2018-10-06T00:45:33.848Z,96.59
2018-10-06T00:48:00.915Z,96.33
2018-10-06T00:50:28.148Z,96.65
2018-10-06T00:52:56.411Z,96.50
2018-10-06T00:55:23.372Z,96.69
2018-10-06T00:57:50.351Z,96.72
2018-10-06T01:00:17.624Z,96.82
2018-10-06T01:02:44.593Z,97.13
2018-10-06T01:05:11.603Z,97.65
2018-10-06T01:07:38.703Z,97.52
2018-10-06T01:10:05.676Z,98.53
2018-10-06T01:12:32.657Z,97.96
2018-10-06T01:14:59.774Z,97.64
2018-10-06T01:17:26.851Z,97.50
2018-10-06T01:19:53.935Z,96.93
2018-10-06T01:22:20.908Z,96.90
2018-10-06T01:24:48.041Z,97.08
2018-10-06T01:27:15.115Z,97.20
2018-10-06T01:29:42.255Z,97.95
2018-10-06T01:32:09.366Z,97.21
2018-10-06T01:34:36.371Z,97.32
2018-10-06T01:37:03.363Z,96.85
2018-10-06T01:39:30.767Z,97.73
2018-10-06T01:41:58.024Z,97.32
2018-10-06T01:44:24.984Z,97.71
2018-10-06T01:46:53.481Z,97.78
2018-10-06T01:49:20.559Z,97.89
2018-10-06T01:51:47.523Z,97.91
2018-10-06T01:54:14.571Z,98.06
2018-10-06T01:56:41.631Z,97.72
2018-10-06T01:59:08.680Z,97.42
2018-10-06T02:01:35.663Z,97.36
2018-10-06T02:04:02.724Z,97.45
2018-10-06T02:06:29.727Z,98.43
2018-10-06T02:08:56.780Z,98.67
2018-10-06T02:11:23.753Z,98.13
2018-10-06T02:13:50.972Z,98.44
2018-10-06T02:16:17.968Z,98.29
2018-10-06T02:18:45.167Z,98.46
2018-10-06T02:21:12.244Z,98.42
2018-10-06T02:23:39.242Z,98.82
2018-10-06T02:26:06.339Z,99.44
2018-10-06T02:28:33.333Z,99.66
2018-10-06T02:31:00.400Z,99.03
2018-10-06T02:33:27.364Z,98.61
2018-10-06T02:35:54.425Z,99.00
2018-10-06T02:38:21.647Z,99.18
2018-10-06T02:40:48.623Z,99.38
2018-10-06T02:43:15.681Z,99.25
2018-10-06T02:45:43.104Z,99.55
2018-10-06T02:48:10.071Z,100.00
2018-10-06T02:50:37.051Z,100.00
2018-10-06T02:53:04.228Z,100.00
2018-10-06T02:55:31.235Z,100.00
2018-10-06T02:58:06.207Z,100.00
2018-10-06T03:00:33.219Z,100.00
2018-10-06T03:03:00.276Z,100.00
2018-10-06T03:05:27.316Z,100.00
2018-10-06T03:07:54.767Z,99.99
2018-10-06T03:10:21.853Z,99.86
2018-10-06T03:12:49.228Z,98.59
2018-10-06T03:15:16.210Z,98.55
2018-10-06T03:17:43.180Z,99.73
2018-10-06T03:20:10.177Z,100.00
2018-10-06T03:22:37.156Z,100.00
2018-10-06T03:25:04.157Z,100.00
2018-10-06T03:27:31.229Z,100.00
2018-10-06T03:29:58.296Z,100.00
2018-10-06T03:32:25.272Z,100.00
2018-10-06T03:34:52.248Z,100.00
2018-10-06T03:37:19.354Z,100.00
2018-10-06T03:39:46.335Z,100.00
2018-10-06T03:42:13.451Z,100.00
2018-10-06T03:44:40.700Z,100.00
2018-10-06T03:47:07.792Z,100.00
2018-10-06T03:49:34.872Z,100.00
2018-10-06T03:52:01.972Z,100.00
2018-10-06T03:54:29.034Z,100.00
2018-10-06T03:56:56.009Z,100.00
2018-10-06T03:59:23.344Z,100.00
2018-10-06T04:01:50.319Z,100.00
2018-10-06T04:04:17.391Z,100.00
2018-10-06T04:06:44.444Z,100.00
2018-10-06T04:09:11.714Z,100.00
2018-10-06T04:11:38.774Z,100.00
2018-10-06T04:14:06.112Z,100.00
2018-10-06T04:16:33.091Z,100.00
2018-10-06T04:19:00.632Z,100.00
2018-10-06T04:21:32.600Z,100.00
2018-10-06T04:23:59.669Z,100.00
2018-10-06T04:26:26.780Z,100.00
2018-10-06T04:28:53.856Z,100.00
2018-10-06T04:31:20.828Z,100.00
2018-10-06T04:33:47.852Z,100.00
2018-10-06T04:36:14.828Z,100.00
2018-10-06T04:38:41.899Z,100.00
2018-10-06T04:41:09.171Z,100.00
2018-10-06T04:43:36.157Z,100.00
2018-10-06T04:46:03.228Z,100.00
2018-10-06T04:48:30.299Z,100.00
2018-10-06T04:50:57.263Z,100.00
2018-10-06T04:53:24.238Z,100.00
2018-10-06T04:55:51.395Z,100.00
2018-10-06T04:58:18.365Z,100.00
2018-10-06T05:00:45.648Z,100.00
2018-10-06T05:03:12.772Z,100.00
2018-10-06T05:05:39.688Z,100.00
2018-10-06T05:08:06.696Z,100.00
2018-10-06T05:10:33.699Z,100.00
2018-10-06T05:13:00.683Z,100.00
2018-10-06T05:15:27.755Z,100.00
2018-10-06T05:17:55.076Z,100.00
2018-10-06T05:20:22.161Z,100.00
2018-10-06T05:22:49.234Z,100.00
2018-10-06T05:25:16.327Z,100.00
2018-10-06T05:27:43.407Z,100.00
2018-10-06T05:30:10.431Z,100.00
2018-10-06T05:32:37.541Z,100.00
2018-10-06T05:35:04.754Z,100.00
2018-10-06T05:37:31.817Z,100.00
2018-10-06T05:39:58.887Z,100.00
2018-10-06T05:42:25.903Z,100.00
2018-10-06T05:44:52.951Z,100.00
2018-10-06T05:47:20.036Z,100.00
2018-10-06T05:49:47.015Z,100.00
2018-10-06T05:52:13.993Z,100.00
2018-10-06T05:54:41.060Z,100.00
2018-10-06T05:57:08.123Z,100.00
2018-10-06T05:59:35.106Z,100.00
2018-10-06T06:02:02.536Z,100.00
2018-10-06T06:04:29.537Z,100.00
2018-10-06T06:06:56.604Z,100.00
2018-10-06T06:09:23.614Z,100.00
2018-10-06T06:11:50.676Z,100.00
2018-10-06T06:14:17.643Z,100.00
2018-10-06T06:16:45.032Z,100.00
2018-10-06T06:19:12.092Z,100.00
2018-10-06T06:21:39.177Z,100.00
2018-10-06T06:24:06.186Z,100.00
2018-10-06T06:26:33.492Z,100.00
2018-10-06T06:29:00.489Z,100.00
2018-10-06T06:31:27.687Z,100.00
2018-10-06T06:33:54.633Z,100.00
2018-10-06T06:36:21.823Z,100.00
2018-10-06T06:38:49.026Z,100.00
2018-10-06T06:41:16.083Z,100.00
2018-10-06T06:43:43.172Z,100.00
2018-10-06T06:46:10.061Z,100.00
2018-10-06T06:48:37.058Z,100.00
2018-10-06T06:51:04.177Z,100.00
2018-10-06T06:53:31.243Z,100.00
2018-10-06T06:55:58.232Z,100.00
2018-10-06T06:58:25.322Z,100.00
2018-10-06T07:00:52.307Z,100.00
2018-10-06T07:03:19.369Z,100.00
2018-10-06T07:05:46.915Z,100.00
2018-10-06T07:08:13.976Z,100.00
2018-10-06T07:10:40.965Z,100.00
2018-10-06T07:13:08.209Z,100.00
2018-10-06T07:15:35.340Z,100.00
2018-10-06T07:18:02.351Z,100.00
2018-10-06T07:20:29.351Z,100.00
2018-10-06T07:22:56.330Z,100.00
2018-10-06T07:25:23.907Z,100.00
2018-10-06T07:27:50.963Z,100.00
2018-10-06T07:30:18.489Z,99.15
2018-10-06T07:32:45.487Z,98.55
2018-10-06T07:35:12.476Z,98.26
2018-10-06T07:37:39.579Z,100.00
2018-10-06T07:40:06.816Z,99.30
2018-10-06T07:42:33.883Z,98.21
2018-10-06T07:45:01.286Z,96.22
2018-10-06T07:47:28.302Z,96.63
2018-10-06T07:49:55.721Z,95.31
2018-10-06T07:52:22.788Z,94.97
2018-10-06T07:54:49.856Z,94.99
2018-10-06T07:57:17.082Z,95.35
2018-10-06T07:59:44.083Z,94.48
2018-10-06T08:02:11.143Z,95.49
2018-10-06T08:04:38.772Z,93.74
2018-10-06T08:07:06.665Z,93.09
2018-10-06T08:09:34.135Z,92.80
2018-10-06T08:12:01.211Z,92.23
2018-10-06T08:14:28.512Z,92.96
2018-10-06T08:16:55.529Z,92.24
2018-10-06T08:19:22.516Z,92.17
2018-10-06T08:21:50.013Z,92.54
2018-10-06T08:24:17.104Z,91.44
2018-10-06T08:26:44.165Z,91.60
2018-10-06T08:29:11.328Z,91.73
2018-10-06T08:31:38.459Z,90.07
2018-10-06T08:34:05.516Z,90.18
2018-10-06T08:36:32.742Z,91.05
2018-10-06T08:38:59.999Z,90.19
2018-10-06T08:41:27.393Z,89.89
2018-10-06T08:43:56.000Z,89.24
2018-10-06T08:46:22.987Z,91.80
2018-10-06T08:48:49.969Z,88.36
2018-10-06T08:51:17.040Z,89.11
2018-10-06T08:53:44.009Z,87.99
2018-10-06T08:56:11.120Z,86.29
2018-10-06T08:58:38.533Z,86.40
2018-10-06T09:01:06.087Z,85.58
2018-10-06T09:03:33.112Z,85.01
2018-10-06T09:06:00.108Z,85.19
2018-10-06T09:08:27.089Z,85.13
2018-10-06T09:10:54.097Z,84.88
2018-10-06T09:13:21.588Z,83.53
2018-10-06T09:15:48.576Z,83.87
2018-10-06T09:18:15.845Z,82.62
2018-10-06T09:20:43.214Z,82.51
2018-10-06T09:23:10.208Z,81.65
2018-10-06T09:25:37.264Z,81.38
2018-10-06T09:28:05.159Z,80.26
2018-10-06T09:30:32.467Z,80.35
2018-10-06T09:32:59.530Z,79.70
2018-10-06T09:35:26.573Z,78.72
2018-10-06T09:37:54.892Z,78.92
2018-10-06T09:40:21.859Z,77.62
2018-10-06T09:42:49.053Z,77.55
2018-10-06T09:45:16.534Z,78.61
2018-10-06T09:47:43.525Z,77.95
2018-10-06T09:50:10.560Z,77.29
2018-10-06T09:52:37.989Z,76.31
2018-10-06T09:55:05.008Z,76.82
2018-10-06T09:57:32.000Z,74.98
2018-10-06T09:59:59.993Z,75.46
2018-10-06T10:02:32.739Z,74.84
2018-10-06T10:05:06.165Z,75.30
2018-10-06T10:07:34.501Z,73.97
2018-10-06T10:10:02.226Z,73.88
2018-10-06T10:12:30.258Z,73.70
2018-10-06T10:14:57.219Z,73.82
2018-10-06T10:17:24.461Z,72.08
2018-10-06T10:19:51.433Z,73.35
2018-10-06T10:22:18.601Z,71.02
2018-10-06T10:24:45.440Z,72.33
2018-10-06T10:27:12.555Z,71.21
2018-10-06T10:29:39.726Z,70.23
2018-10-06T10:32:07.035Z,70.70
2018-10-06T10:34:34.480Z,69.37
2018-10-06T10:37:02.136Z,68.85
2018-10-06T10:39:29.209Z,69.34
2018-10-06T10:41:56.129Z,68.62
2018-10-06T10:44:23.221Z,67.22
2018-10-06T10:46:50.296Z,68.78
2018-10-06T10:49:17.385Z,68.47
2018-10-06T10:51:44.820Z,66.86
2018-10-06T10:54:11.796Z,67.66
2018-10-06T10:56:39.043Z,66.81
2018-10-06T10:59:06.066Z,66.39
2018-10-06T11:01:33.043Z,66.41
2018-10-06T11:04:00.279Z,65.11
2018-10-06T11:06:27.231Z,66.57
2018-10-06T11:08:54.220Z,65.99
2018-10-06T11:11:21.272Z,64.99
2018-10-06T11:13:48.456Z,65.55
2018-10-06T11:16:15.475Z,63.66
2018-10-06T11:18:42.551Z,64.09
2018-10-06T11:21:09.579Z,64.23
2018-10-06T11:23:36.565Z,63.86
2018-10-06T11:26:03.574Z,64.76
2018-10-06T11:28:54.055Z,64.30
2018-10-06T11:31:21.166Z,64.07
2018-10-06T11:33:48.335Z,62.25
2018-10-06T11:36:15.489Z,61.09
2018-10-06T11:38:42.783Z,61.38
2018-10-06T11:41:09.811Z,60.91
2018-10-06T11:43:36.892Z,62.15
2018-10-06T11:46:03.942Z,62.31
2018-10-06T11:48:31.172Z,60.61
2018-10-06T11:50:58.258Z,61.18
2018-10-06T11:53:25.309Z,59.90
2018-10-06T11:55:52.829Z,60.85
2018-10-06T11:58:19.833Z,59.86
2018-10-06T12:00:46.886Z,60.38
2018-10-06T12:03:13.917Z,59.42
2018-10-06T12:05:41.071Z,60.14
2018-10-06T12:08:08.086Z,60.52
2018-10-06T12:10:35.185Z,58.37
2018-10-06T12:13:02.276Z,56.94
2018-10-06T12:15:29.264Z,56.86
2018-10-06T12:17:56.402Z,57.14
2018-10-06T12:20:23.529Z,56.92
2018-10-06T12:22:50.498Z,54.91
2018-10-06T12:25:17.637Z,54.63
2018-10-06T12:27:44.800Z,55.17
2018-10-06T12:30:11.791Z,54.33
2018-10-06T12:32:39.092Z,53.77
2018-10-06T12:35:06.270Z,55.07
2018-10-06T12:37:33.200Z,54.67
2018-10-06T12:40:00.165Z,54.04
2018-10-06T12:42:27.311Z,54.68
2018-10-06T12:44:54.341Z,57.27
2018-10-06T12:47:21.452Z,55.61
2018-10-06T12:49:48.448Z,51.58
2018-10-06T12:52:15.544Z,53.82
2018-10-06T12:54:42.611Z,52.40
2018-10-06T12:57:09.667Z,51.83
2018-10-06T12:59:36.748Z,52.07
2018-10-06T13:02:03.763Z,51.85
2018-10-06T13:04:32.990Z,52.68
2018-10-06T13:07:00.164Z,51.52
2018-10-06T13:09:27.168Z,49.97
2018-10-06T13:11:54.284Z,51.34
2018-10-06T13:14:21.236Z,50.47
2018-10-06T13:16:48.352Z,49.32
2018-10-06T13:19:15.409Z,52.35
2018-10-06T13:21:42.477Z,50.85
2018-10-06T13:24:09.488Z,51.22
2018-10-06T13:26:36.560Z,51.79
2018-10-06T13:29:03.564Z,52.65
2018-10-06T13:31:30.772Z,50.19
2018-10-06T13:33:57.801Z,51.81
2018-10-06T13:36:24.840Z,50.53
2018-10-06T13:38:51.955Z,51.11
2018-10-06T13:41:19.097Z,51.53
2018-10-06T13:43:46.379Z,50.18
2018-10-06T13:46:13.448Z,52.22
2018-10-06T13:48:40.445Z,49.01
2018-10-06T13:51:08.034Z,50.31
2018-10-06T13:53:35.053Z,54.15
2018-10-06T13:56:02.069Z,51.87
2018-10-06T13:58:29.071Z,53.26
2018-10-06T14:03:22.885Z,52.55
2018-10-06T14:05:49.928Z,53.42
2018-10-06T14:08:16.923Z,53.00
2018-10-06T14:10:43.920Z,54.82
2018-10-06T14:13:10.919Z,54.05
2018-10-06T14:15:37.992Z,56.17
2018-10-06T14:18:06.349Z,56.54
2018-10-06T14:20:33.704Z,55.22
2018-10-06T14:23:00.787Z,55.08
2018-10-06T14:25:27.766Z,55.37
2018-10-06T14:27:54.880Z,58.80
2018-10-06T14:30:21.903Z,56.55
2018-10-06T14:32:48.903Z,59.80
2018-10-06T14:35:16.439Z,55.48
2018-10-06T14:37:43.831Z,55.77
2018-10-06T14:40:10.887Z,56.46
2018-10-06T14:42:38.000Z,57.36
2018-10-06T14:45:05.065Z,58.89
2018-10-06T14:47:32.103Z,57.14
2018-10-06T14:49:59.120Z,56.73
2018-10-06T14:52:26.863Z,56.30
2018-10-06T14:54:53.855Z,56.58
2018-10-06T14:57:20.854Z,57.96
2018-10-06T14:59:47.949Z,57.04
2018-10-06T15:02:15.251Z,55.57
2018-10-06T15:04:42.240Z,57.26
2018-10-06T15:07:09.394Z,58.78
2018-10-06T15:09:36.535Z,58.41
2018-10-06T15:12:03.728Z,57.54
2018-10-06T15:14:30.838Z,59.73
2018-10-06T15:16:58.077Z,58.83
2018-10-06T15:19:25.312Z,60.33
2018-10-06T15:21:52.484Z,60.36
2018-10-06T15:24:19.480Z,60.88
2018-10-06T15:29:20.559Z,59.69
2018-10-06T15:31:47.647Z,59.48
2018-10-06T15:34:14.783Z,58.92
2018-10-06T15:36:41.855Z,59.28
2018-10-06T15:39:09.321Z,60.97
2018-10-06T15:41:36.624Z,60.81
2018-10-06T15:44:03.613Z,59.12
2018-10-06T15:46:30.662Z,59.94
2018-10-06T15:48:58.191Z,60.15
2018-10-06T15:51:25.168Z,60.34
2018-10-06T15:53:52.155Z,61.44
2018-10-06T15:56:19.297Z,60.91
2018-10-06T15:58:46.355Z,61.17
2018-10-06T16:01:13.422Z,61.96
2018-10-06T16:03:40.873Z,62.76
2018-10-06T16:06:07.857Z,63.74
2018-10-06T16:08:34.860Z,64.62
2018-10-06T16:11:01.889Z,64.67
2018-10-06T16:13:28.951Z,63.96
2018-10-06T16:15:55.938Z,66.18
2018-10-06T16:18:22.966Z,65.74
2018-10-06T16:20:50.043Z,65.35
2018-10-06T16:23:17.373Z,67.32
2018-10-06T16:25:44.703Z,66.54
2018-10-06T16:28:11.776Z,67.12
2018-10-06T16:30:38.768Z,67.35
2018-10-06T16:33:06.012Z,70.47
2018-10-06T16:35:32.996Z,67.72
2018-10-06T16:38:00.033Z,69.84
2018-10-06T16:40:27.039Z,70.20
2018-10-06T16:42:54.350Z,68.45
2018-10-06T16:45:21.408Z,69.15
2018-10-06T16:47:48.428Z,70.21
2018-10-06T16:50:15.592Z,69.35
2018-10-06T16:52:42.708Z,70.16
2018-10-06T16:55:10.355Z,70.25
2018-10-06T16:57:37.400Z,69.80
2018-10-06T17:00:04.478Z,69.97
2018-10-06T17:02:31.756Z,71.15
2018-10-06T17:08:09.277Z,69.81
2018-10-06T17:10:36.286Z,69.58
2018-10-06T17:13:03.338Z,70.56
2018-10-06T17:15:30.737Z,71.58
2018-10-06T17:17:57.709Z,71.29
2018-10-06T17:20:24.728Z,71.77
2018-10-06T17:22:51.795Z,71.23
2018-10-06T17:25:19.061Z,70.13
2018-10-06T17:27:46.040Z,73.19
2018-10-06T17:30:13.112Z,70.55
2018-10-06T17:32:40.107Z,70.30
2018-10-06T17:35:07.346Z,71.23
2018-10-06T17:37:34.680Z,70.77
2018-10-06T17:40:02.019Z,71.66
2018-10-06T17:42:29.401Z,72.29
2018-10-06T17:44:56.592Z,72.16
2018-10-06T17:47:23.896Z,70.52
2018-10-06T17:49:50.984Z,72.41
2018-10-06T17:52:18.193Z,71.01
2018-10-06T17:54:45.291Z,71.66
2018-10-06T17:57:12.267Z,71.24
2018-10-06T17:59:39.448Z,73.06
2018-10-06T18:02:06.528Z,74.36
2018-10-06T18:04:33.871Z,75.53
2018-10-06T18:07:01.604Z,74.22
2018-10-06T18:09:28.620Z,75.71
2018-10-06T18:11:55.693Z,76.13
2018-10-06T18:14:22.713Z,75.36
2018-10-06T18:16:50.022Z,75.43
2018-10-06T18:19:17.530Z,73.98
2018-10-06T18:21:44.561Z,74.37
2018-10-06T18:24:11.897Z,74.33
2018-10-06T18:26:39.337Z,75.58
2018-10-06T18:29:06.672Z,75.06
2018-10-06T18:31:33.678Z,74.59
2018-10-06T18:34:01.508Z,75.18
2018-10-06T18:36:28.639Z,76.88
2018-10-06T18:38:55.904Z,76.72
2018-10-06T18:41:23.012Z,78.17
2018-10-06T18:43:50.086Z,75.81
2018-10-06T18:46:17.409Z,76.95
2018-10-06T18:48:44.544Z,75.55
2018-10-06T18:51:11.528Z,75.69
2018-10-06T18:53:38.549Z,76.80
2018-10-06T18:56:05.561Z,77.76
2018-10-06T18:58:32.700Z,74.52
2018-10-06T19:00:59.791Z,76.40
2018-10-06T19:03:27.296Z,76.15
2018-10-06T19:05:54.688Z,76.30
2018-10-06T19:08:21.675Z,76.77
2018-10-06T19:10:48.776Z,77.81
2018-10-06T19:13:16.088Z,78.08
2018-10-06T19:15:43.395Z,77.46
2018-10-06T19:18:10.779Z,76.06
2018-10-06T19:20:38.798Z,77.65
2018-10-06T19:23:05.915Z,78.55
2018-10-06T19:25:32.958Z,77.34
2018-10-06T19:27:59.971Z,77.75
2018-10-06T19:30:26.972Z,79.27
2018-10-06T19:32:54.119Z,78.92
2018-10-06T19:35:21.199Z,78.41
2018-10-06T19:37:48.198Z,78.38
2018-10-06T19:40:15.730Z,78.32
2018-10-06T19:42:42.705Z,79.02
2018-10-06T19:45:09.786Z,79.63
2018-10-06T19:47:36.871Z,79.92
2018-10-06T19:50:03.877Z,82.66
2018-10-06T19:52:31.000Z,80.51
2018-10-06T19:54:58.753Z,79.86
2018-10-06T19:57:25.758Z,80.06
2018-10-06T19:59:52.927Z,81.08
2018-10-06T20:02:20.589Z,81.73
2018-10-06T20:04:47.887Z,81.56
2018-10-06T20:07:15.563Z,81.37
2018-10-06T20:09:43.364Z,81.90
2018-10-06T20:12:10.340Z,81.60
2018-10-06T20:14:37.497Z,81.96
2018-10-06T20:17:04.506Z,82.46
2018-10-06T20:19:31.650Z,82.16
2018-10-06T20:21:59.258Z,82.76
2018-10-06T20:24:26.263Z,82.46
2018-10-06T20:26:53.297Z,82.88
2018-10-06T20:29:20.280Z,83.25
2018-10-06T20:31:47.360Z,83.36
2018-10-06T20:34:14.656Z,83.87
2018-10-06T20:36:41.724Z,83.71
2018-10-06T20:39:09.452Z,84.15
2018-10-06T20:41:36.820Z,84.93
2018-10-06T20:44:03.807Z,85.14
2018-10-06T20:46:30.837Z,84.96
2018-10-06T20:48:58.302Z,84.78
2018-10-06T20:51:25.289Z,85.89
2018-10-06T20:53:52.607Z,86.29
2018-10-06T20:56:19.694Z,86.45
2018-10-06T20:58:46.955Z,86.47
2018-10-06T21:01:14.095Z,86.51
2018-10-06T21:03:41.188Z,86.64
2018-10-06T21:06:08.260Z,86.44
2018-10-06T21:08:35.228Z,86.82
2018-10-06T21:11:02.685Z,86.96
2018-10-06T21:13:29.659Z,87.65
2018-10-06T21:15:56.661Z,88.02
2018-10-06T21:18:23.916Z,87.80
2018-10-06T21:20:50.980Z,88.11
2018-10-06T21:23:18.795Z,88.58
2018-10-06T21:25:45.800Z,88.23
2018-10-06T21:28:13.225Z,88.30
2018-10-06T21:30:40.316Z,88.93
2018-10-06T21:33:07.315Z,89.16
2018-10-06T21:35:34.733Z,89.13
2018-10-06T21:38:01.851Z,88.77
2018-10-06T21:40:29.345Z,89.30
2018-10-06T21:42:56.504Z,89.71
2018-10-06T21:45:23.485Z,89.42
2018-10-06T21:47:50.613Z,89.30
2018-10-06T21:50:17.660Z,89.96
2018-10-06T21:52:45.274Z,90.61
2018-10-06T21:55:12.424Z,90.79
2018-10-06T21:57:39.502Z,91.15
2018-10-06T22:00:06.956Z,91.51
2018-10-06T22:02:34.116Z,90.85
2018-10-06T22:05:01.554Z,91.40
2018-10-06T22:07:28.904Z,91.80
2018-10-06T22:09:56.064Z,92.07
2018-10-06T22:12:23.071Z,92.25
2018-10-06T22:14:50.063Z,92.26
2018-10-06T22:17:17.061Z,92.23
2018-10-06T22:19:44.060Z,92.50
2018-10-06T22:22:11.051Z,93.10
2018-10-06T22:24:38.043Z,93.80
2018-10-06T22:27:05.129Z,94.00
2018-10-06T22:29:33.964Z,94.45
2018-10-06T22:32:01.075Z,94.51
2018-10-06T22:34:28.459Z,95.05
2018-10-06T22:36:55.716Z,95.48
2018-10-06T22:39:22.710Z,95.83
2018-10-06T22:41:49.842Z,96.32
2018-10-06T22:44:16.943Z,95.76
2018-10-06T22:46:43.976Z,98.08
2018-10-06T22:49:11.192Z,97.30
2018-10-06T22:51:38.229Z,97.82
2018-10-06T22:54:05.388Z,97.67
2018-10-06T22:56:32.381Z,98.15
2018-10-06T22:58:59.572Z,98.21
2018-10-06T23:01:26.710Z,98.57
2018-10-06T23:03:53.845Z,99.34
2018-10-06T23:06:20.870Z,99.20
2018-10-06T23:08:47.935Z,99.15
2018-10-06T23:11:14.920Z,100.00
2018-10-06T23:13:41.896Z,100.00
2018-10-06T23:16:08.942Z,97.91
2018-10-06T23:18:35.933Z,97.56
2018-10-06T23:21:03.138Z,97.92
2018-10-06T23:23:30.527Z,97.61
2018-10-06T23:25:57.546Z,98.03
2018-10-06T23:28:24.643Z,100.00
2018-10-06T23:30:51.630Z,100.00
2018-10-06T23:33:18.733Z,100.00
2018-10-06T23:35:45.967Z,100.00
2018-10-06T23:38:12.959Z,100.00
2018-10-06T23:40:40.035Z,100.00
2018-10-06T23:43:07.208Z,100.00
2018-10-06T23:45:34.361Z,100.00
2018-10-06T23:48:01.487Z,100.00
2018-10-06T23:50:28.604Z,100.00
2018-10-06T23:52:55.733Z,100.00
2018-10-06T23:55:22.792Z,100.00
2018-10-06T23:57:49.792Z,100.00
